Time;durP1;ratioP1;P1;durP2;ratioP2;P2;SDS_P1;SDS_P2;PMS_P1;PMS_P2;Temp;Humidity;BMP_temperature;BMP_pressure;BME280_temperature;BME280_humidity;BME280_pressure;Samples;Min_cycle;Max_cycle;Signal;HPM_P1;HPM_P2
2021/04/03 00:00:30;;;;;;;23.20;5.93;;;;;;;17.93;63.68;100479.13;5056812;28;20048;-67
2021/04/03 00:02:57;;;;;;;19.00;5.90;;;;;;;17.93;63.93;100478.28;5055762;28;20056;-66
2021/04/03 00:05:25;;;;;;;22.70;6.53;;;;;;;17.96;64.04;100477.63;5056861;28;20048;-68
2021/04/03 00:07:52;;;;;;;20.73;7.20;;;;;;;17.97;63.69;100479.28;5064549;28;20044;-66
2021/04/03 00:10:35;;;;;;;21.50;6.00;;;;;;;17.97;63.59;100465.97;5061475;28;20127;-72
2021/04/03 00:13:01;;;;;;;28.57;7.57;;;;;;;18.00;63.95;100468.16;5060479;28;20044;-71
2021/04/03 00:15:29;;;;;;;16.23;6.65;;;;;;;18.02;63.58;100455.66;5063597;28;20141;-78
2021/04/03 00:17:55;;;;;;;21.03;7.03;;;;;;;17.95;63.50;100447.72;5059001;28;20143;-73
2021/04/03 00:20:24;;;;;;;30.08;7.00;;;;;;;17.88;63.68;100439.75;5058385;28;20519;-72
2021/04/03 00:22:51;;;;;;;29.80;7.68;;;;;;;17.85;63.56;100433.94;5053123;28;20040;-69
2021/04/03 00:25:17;;;;;;;32.60;7.47;;;;;;;17.69;63.81;100411.78;5057497;28;20041;-69
2021/04/03 00:27:44;;;;;;;25.90;8.57;;;;;;;17.82;63.61;100434.59;5058689;28;20048;-69
2021/04/03 00:30:17;;;;;;;25.60;8.60;;;;;;;17.82;63.75;100431.78;5052309;28;20500;-69
2021/04/03 00:32:46;;;;;;;17.00;6.57;;;;;;;17.80;63.89;100428.44;5059477;28;20045;-70
2021/04/03 00:35:14;;;;;;;28.02;7.85;;;;;;;17.77;64.17;100425.09;5056752;28;20401;-70
2021/04/03 00:37:41;;;;;;;24.03;7.43;;;;;;;17.67;64.29;100408.44;5054162;28;20056;-70
2021/04/03 00:40:11;;;;;;;22.87;7.40;;;;;;;17.74;63.94;100420.09;5058210;28;20044;-71
2021/04/03 00:42:38;;;;;;;20.43;6.73;;;;;;;17.63;64.09;100415.94;5062297;28;20174;-70
2021/04/03 00:45:06;;;;;;;22.43;7.03;;;;;;;17.75;64.37;100432.22;5062279;28;20048;-69
2021/04/03 00:47:32;;;;;;;22.37;8.37;;;;;;;17.58;64.15;100421.75;5060432;28;20048;-69
2021/04/03 00:49:58;;;;;;;28.33;7.40;;;;;;;17.71;64.32;100437.72;5060788;28;20044;-71
2021/04/03 00:52:25;;;;;;;18.97;7.43;;;;;;;17.63;64.34;100412.28;5056340;28;20476;-68
2021/04/03 00:54:52;;;;;;;22.97;6.60;;;;;;;17.63;64.42;100429.22;5055903;28;20056;-69
2021/04/03 00:57:18;;;;;;;23.53;6.40;;;;;;;17.68;64.29;100444.03;5065924;28;20048;-69
2021/04/03 00:59:45;;;;;;;26.07;7.10;;;;;;;17.70;64.54;100446.50;5063819;28;20044;-69
2021/04/03 01:02:11;;;;;;;25.55;6.93;;;;;;;17.74;64.04;100444.66;5059496;28;20045;-69
2021/04/03 01:04:38;;;;;;;26.90;6.53;;;;;;;17.71;64.21;100443.38;5038617;28;20044;-70
2021/04/03 01:07:05;;;;;;;27.80;7.73;;;;;;;17.73;64.15;100448.66;5054433;28;20053;-70
2021/04/03 01:09:39;;;;;;;27.37;6.60;;;;;;;17.71;63.98;100440.53;5062673;28;20049;-70
2021/04/03 01:12:43;;;;;;;17.27;6.73;;;;;;;17.61;63.96;100432.38;5057136;28;21110;-70
2021/04/03 01:15:17;;;;;;;14.93;6.73;;;;;;;17.49;64.21;100421.72;5054822;28;20045;-70
2021/04/03 01:17:56;;;;;;;28.67;6.33;;;;;;;17.46;64.11;100413.09;5064574;28;20049;-71
2021/04/03 01:20:30;;;;;;;26.33;6.23;;;;;;;17.28;64.11;100407.44;5060158;28;20048;-69
2021/04/03 01:22:56;;;;;;;20.20;7.00;;;;;;;17.35;63.90;100423.06;5057650;28;20913;-69
2021/04/03 01:25:50;;;;;;;16.77;6.70;;;;;;;17.28;64.29;100418.72;5061370;28;20060;-69
2021/04/03 01:28:47;;;;;;;28.27;7.63;;;;;;;17.29;63.96;100413.91;5056539;28;20049;-72
2021/04/03 01:31:13;;;;;;;25.33;6.30;;;;;;;17.23;64.41;100403.91;5063063;28;20052;-76
2021/04/03 01:33:45;;;;;;;27.43;6.90;;;;;;;17.32;64.46;100418.06;5059664;28;20061;-72
2021/04/03 01:36:17;;;;;;;22.63;7.67;;;;;;;17.36;64.38;100404.94;5058554;28;20053;-70
2021/04/03 01:39:06;;;;;;;24.17;8.33;;;;;;;17.42;64.04;100409.28;5062471;28;20041;-67
2021/04/03 01:41:35;;;;;;;24.33;8.00;;;;;;;17.45;64.12;100400.97;5059121;28;20496;-69
2021/04/03 01:44:06;;;;;;;26.73;9.10;;;;;;;17.36;64.19;100397.31;5059286;28;20041;-68
2021/04/03 01:46:35;;;;;;;27.30;7.33;;;;;;;17.36;63.77;100399.31;5065082;28;20062;-70
2021/04/03 01:49:09;;;;;;;23.08;6.95;;;;;;;17.34;63.80;100401.63;5059419;28;20044;-69
2021/04/03 01:51:37;;;;;;;15.27;7.40;;;;;;;17.19;64.06;100380.34;5063157;28;20132;-69
2021/04/03 01:54:05;;;;;;;19.00;7.63;;;;;;;17.28;63.56;100390.50;5064488;28;20049;-69
2021/04/03 01:56:33;;;;;;;28.77;8.93;;;;;;;17.22;63.79;100403.09;5063630;28;20504;-69
2021/04/03 01:59:00;;;;;;;33.97;9.70;;;;;;;17.14;64.02;100401.09;5059523;28;20048;-69
2021/04/03 02:01:27;;;;;;;19.70;8.57;;;;;;;16.98;63.77;100375.31;5064310;28;20047;-68
2021/04/03 02:03:59;;;;;;;23.83;7.53;;;;;;;16.92;64.02;100370.16;5065563;28;20044;-66
2021/04/03 02:06:25;;;;;;;29.67;8.90;;;;;;;16.98;63.77;100392.25;5065432;28;20045;-73
2021/04/03 02:08:52;;;;;;;23.03;8.73;;;;;;;16.92;63.93;100396.41;5061617;28;20477;-74
2021/04/03 02:11:21;;;;;;;24.93;8.20;;;;;;;16.85;64.15;100384.75;5060357;28;20055;-74
2021/04/03 02:13:48;;;;;;;20.87;8.13;;;;;;;16.83;64.11;100389.06;5062146;28;20045;-72
2021/04/03 02:16:14;;;;;;;30.17;10.03;;;;;;;16.81;64.36;100376.09;5060789;28;20049;-73
2021/04/03 02:18:42;;;;;;;28.10;9.77;;;;;;;16.65;64.10;100362.75;5059916;28;20051;-81
2021/04/03 02:21:09;;;;;;;22.37;8.30;;;;;;;16.75;64.23;100387.84;5063739;28;20045;-82
2021/04/03 02:23:36;;;;;;;25.47;9.40;;;;;;;16.72;64.26;100382.88;5066228;28;20385;-75
2021/04/03 02:26:03;;;;;;;32.87;9.07;;;;;;;16.69;64.35;100384.34;5060447;28;20037;-75
2021/04/03 02:28:30;;;;;;;30.77;8.20;;;;;;;16.67;64.48;100386.63;5062364;28;20053;-71
2021/04/03 02:30:57;;;;;;;31.97;9.63;;;;;;;16.69;64.56;100378.69;5055369;28;20052;-71
2021/04/03 02:33:24;;;;;;;21.77;8.13;;;;;;;16.64;64.46;100386.47;5062556;28;20051;-73
2021/04/03 02:35:50;;;;;;;31.73;9.13;;;;;;;16.67;64.62;100385.81;5056309;28;20421;-75
2021/04/03 02:38:17;;;;;;;27.67;9.03;;;;;;;16.65;64.91;100380.50;5062850;28;20051;-72
2021/04/03 02:40:45;;;;;;;23.67;8.53;;;;;;;16.64;65.13;100378.00;5061861;28;20041;-73
2021/04/03 02:43:24;;;;;;;26.60;7.83;;;;;;;16.64;64.96;100381.66;5063065;28;20041;-76
2021/04/03 02:46:14;;;;;;;27.08;8.70;;;;;;;16.64;64.80;100367.56;5065891;28;20055;-68
2021/04/03 02:48:46;;;;;;;25.02;8.43;;;;;;;16.34;65.02;100307.25;5063483;28;20048;-70
2021/04/03 02:51:20;;;;;;;26.83;8.03;;;;;;;16.69;65.19;100361.78;5056302;28;20663;-69
2021/04/03 02:53:48;;;;;;;22.13;8.57;;;;;;;16.66;65.49;100344.69;5060381;28;20045;-70
2021/04/03 02:56:15;;;;;;;22.73;7.53;;;;;;;16.81;65.82;100358.34;5060548;28;20051;-71
2021/04/03 02:58:44;;;;;;;23.73;8.77;;;;;;;16.85;65.77;100350.91;5059083;28;20148;-71
2021/04/03 03:01:13;;;;;;;31.60;9.20;;;;;;;16.85;65.85;100362.19;5062720;28;20063;-72
2021/04/03 03:03:41;;;;;;;22.17;9.38;;;;;;;16.86;65.62;100355.41;5060948;28;20041;-70
2021/04/03 03:06:10;;;;;;;23.70;7.80;;;;;;;16.83;65.46;100346.75;5063451;28;20096;-72
2021/04/03 03:08:38;;;;;;;22.53;7.80;;;;;;;16.96;65.69;100369.19;5057186;28;20063;-74
2021/04/03 03:11:05;;;;;;;28.53;9.27;;;;;;;17.01;65.70;100366.22;5063617;28;20051;-74
2021/04/03 03:13:34;;;;;;;29.87;8.33;;;;;;;17.05;65.48;100357.91;5062431;28;20049;-72
2021/04/03 03:16:03;;;;;;;28.05;8.93;;;;;;;17.06;65.66;100368.06;5058938;28;20136;-72
2021/04/03 03:18:30;;;;;;;26.20;7.83;;;;;;;17.08;65.43;100367.72;5061499;28;20045;-72
2021/04/03 03:20:58;;;;;;;25.43;10.23;;;;;;;17.05;65.66;100352.28;5060381;28;20049;-76
2021/04/03 03:23:25;;;;;;;31.50;11.33;;;;;;;17.11;65.43;100353.78;5058556;28;20564;-76
2021/04/03 03:25:56;;;;;;;28.87;10.57;;;;;;;17.14;65.21;100355.13;5061978;28;20477;-75
2021/04/03 03:28:24;;;;;;;26.67;9.57;;;;;;;17.18;65.41;100367.41;5063026;28;20041;-74
2021/04/03 03:30:51;;;;;;;28.63;10.30;;;;;;;17.12;65.30;100358.25;5057476;28;20079;-74
2021/04/03 03:33:17;;;;;;;31.53;12.23;;;;;;;17.10;65.15;100359.78;5061526;28;20040;-74
2021/04/03 03:35:43;;;;;;;33.93;10.77;;;;;;;16.91;65.30;100331.84;5061768;28;20037;-71
2021/04/03 03:38:10;;;;;;;27.80;10.20;;;;;;;17.06;65.43;100348.31;5056523;28;20713;-71
2021/04/03 03:40:37;;;;;;;31.17;9.07;;;;;;;17.06;65.30;100348.31;5060526;28;20075;-70
2021/04/03 03:43:05;;;;;;;22.77;8.57;;;;;;;17.02;65.05;100344.47;5063831;28;20469;-69
2021/04/03 03:45:32;;;;;;;25.07;8.97;;;;;;;16.71;65.33;100294.59;5058949;28;20041;-70
2021/04/03 03:47:58;;;;;;;27.20;8.60;;;;;;;16.99;65.10;100345.13;5052823;28;20052;-69
2021/04/03 03:50:24;;;;;;;32.13;10.80;;;;;;;16.95;65.04;100338.47;5058984;28;20063;-68
2021/04/03 03:52:51;;;;;;;30.20;10.10;;;;;;;16.93;64.98;100343.63;5061031;28;20041;-69
2021/04/03 03:55:17;;;;;;;36.57;10.93;;;;;;;16.95;65.28;100346.94;5058609;28;20524;-70
2021/04/03 03:57:44;;;;;;;27.20;10.60;;;;;;;16.96;65.28;100348.63;5056525;28;20048;-79
2021/04/03 04:00:11;;;;;;;22.87;8.80;;;;;;;16.90;65.02;100338.66;5061545;28;20052;-77
2021/04/03 04:02:38;;;;;;;22.90;9.47;;;;;;;16.89;64.94;100331.31;5060343;28;20041;-80
2021/04/03 04:05:05;;;;;;;22.63;8.17;;;;;;;16.93;65.09;100335.19;5055754;28;20048;-81
2021/04/03 04:07:34;;;;;;;33.03;10.70;;;;;;;16.97;64.95;100328.53;5063866;28;20052;-81
2021/04/03 04:10:02;;;;;;;22.98;9.00;;;;;;;16.97;64.79;100330.53;5060992;28;20052;-80
2021/04/03 04:12:29;;;;;;;32.03;9.50;;;;;;;16.96;64.66;100334.53;5060296;28;20049;-82
2021/04/03 04:14:56;;;;;;;25.27;9.30;;;;;;;16.95;64.86;100330.03;5059853;28;20056;-73
2021/04/03 04:17:22;;;;;;;32.23;10.87;;;;;;;16.85;64.69;100324.69;5061188;28;20154;-69
2021/04/03 04:19:49;;;;;;;32.17;10.80;;;;;;;16.89;64.90;100329.34;5054808;28;20036;-70
2021/04/03 04:22:15;;;;;;;35.23;13.57;;;;;;;16.93;64.62;100335.19;5053350;28;20052;-78
2021/04/03 04:24:41;;;;;;;38.20;11.67;;;;;;;16.84;64.58;100331.50;5061382;28;20052;-80
2021/04/03 04:27:11;;;;;;;32.20;11.00;;;;;;;16.89;64.58;100336.97;5060169;28;20044;-78
2021/04/03 04:29:37;;;;;;;33.23;11.67;;;;;;;16.91;64.49;100334.66;5059716;28;20285;-79
2021/04/03 04:32:04;;;;;;;40.73;12.17;;;;;;;16.91;64.67;100335.47;5057271;28;20489;-76
2021/04/03 04:34:31;;;;;;;44.20;11.87;;;;;;;16.92;64.88;100341.94;5059810;28;20431;-78
2021/04/03 04:36:57;;;;;;;42.07;12.80;;;;;;;16.94;64.76;100339.66;5058433;28;20052;-77
2021/04/03 04:39:25;;;;;;;49.13;13.80;;;;;;;16.95;64.83;100341.28;5053900;28;20141;-78
2021/04/03 04:41:51;;;;;;;46.50;13.03;;;;;;;16.94;64.84;100345.28;5063435;28;20808;-77
2021/04/03 04:44:18;;;;;;;41.57;12.43;;;;;;;16.93;65.06;100338.00;5059310;28;20115;-76
2021/04/03 04:46:44;;;;;;;45.70;12.53;;;;;;;16.89;64.67;100336.97;5059439;28;20428;-77
2021/04/03 04:49:10;;;;;;;48.00;13.93;;;;;;;16.90;64.84;100349.94;5056059;28;20055;-74
2021/04/03 04:51:37;;;;;;;44.57;13.47;;;;;;;16.93;64.91;100349.28;5058238;28;20041;-73
2021/04/03 04:54:03;;;;;;;31.27;12.90;;;;;;;16.94;64.75;100348.09;5055931;28;20894;-75
2021/04/03 04:56:30;;;;;;;40.10;12.73;;;;;;;16.92;65.18;100342.81;5059052;28;20508;-77
2021/04/03 04:58:56;;;;;;;34.63;11.90;;;;;;;16.94;65.13;100345.28;5062303;28;20047;-72
2021/04/03 05:01:23;;;;;;;37.93;12.03;;;;;;;16.93;65.09;100346.47;5055629;28;20097;-72
2021/04/03 05:03:49;;;;;;;44.47;12.87;;;;;;;16.92;64.98;100347.59;5060379;28;20048;-73
2021/04/03 05:06:16;;;;;;;38.57;11.13;;;;;;;16.92;65.04;100345.63;5062249;28;20401;-71
2021/04/03 05:08:42;;;;;;;32.37;11.50;;;;;;;16.91;64.93;100345.94;5063068;28;20045;-73
2021/04/03 05:11:08;;;;;;;33.43;11.77;;;;;;;16.88;64.89;100343.78;5060385;28;20050;-73
2021/04/03 05:13:35;;;;;;;38.10;12.43;;;;;;;16.86;64.76;100344.13;5056915;28;20036;-73
2021/04/03 05:16:02;;;;;;;30.23;10.87;;;;;;;16.67;65.00;100329.44;5058900;28;20044;-72
2021/04/03 05:18:29;;;;;;;34.17;12.13;;;;;;;16.70;64.83;100345.69;5062148;28;20135;-74
2021/04/03 05:20:55;;;;;;;31.83;11.57;;;;;;;16.78;64.89;100359.00;5061489;28;20044;-73
2021/04/03 05:23:22;;;;;;;32.07;10.47;;;;;;;16.80;64.63;100362.34;5067500;28;20045;-73
2021/04/03 05:25:48;;;;;;;28.53;9.67;;;;;;;16.75;64.55;100360.50;5058414;28;20048;-73
2021/04/03 05:28:15;;;;;;;36.37;12.03;;;;;;;16.72;64.84;100354.66;5061766;28;20067;-72
2021/04/03 05:30:42;;;;;;;37.07;11.53;;;;;;;16.77;64.87;100358.19;5060835;28;20041;-75
2021/04/03 05:33:09;;;;;;;30.33;9.87;;;;;;;16.74;64.86;100347.56;5059679;28;20044;-72
2021/04/03 05:35:35;;;;;;;39.50;13.10;;;;;;;16.85;64.82;100369.81;5059084;28;20048;-72
2021/04/03 05:38:02;;;;;;;30.90;10.20;;;;;;;16.86;64.67;100365.84;5063267;28;20833;-74
2021/04/03 05:40:29;;;;;;;40.37;11.27;;;;;;;16.88;64.53;100374.81;5063660;28;20052;-71
2021/04/03 05:42:56;;;;;;;27.33;10.87;;;;;;;16.89;64.59;100370.81;5064864;28;20041;-71
2021/04/03 05:45:26;;;;;;;26.43;9.93;;;;;;;16.85;64.54;100367.81;5059060;28;20040;-71
2021/04/03 05:47:53;;;;;;;;;;;;;;;16.80;64.56;100366.00;5066776;28;20057;-70
2021/04/03 05:50:19;;;;;;;24.87;9.60;;;;;;;16.83;64.23;100377.78;5063825;28;19931;-75
2021/04/03 05:52:46;;;;;;;23.70;10.27;;;;;;;16.80;64.56;100380.09;5065434;28;20217;-70
2021/04/03 05:55:12;;;;;;;25.87;10.83;;;;;;;16.77;64.18;100379.91;5061432;28;20183;-73
2021/04/03 05:57:39;;;;;;;28.00;10.43;;;;;;;16.71;64.43;100382.00;5064946;28;20051;-77
2021/04/03 06:00:07;;;;;;;34.93;11.43;;;;;;;16.70;64.18;100368.25;5059377;28;20052;-74
2021/04/03 06:02:37;;;;;;;32.63;11.30;;;;;;;16.65;64.34;100371.19;5064078;28;20472;-77
2021/04/03 06:05:05;;;;;;;30.80;12.27;;;;;;;16.57;64.14;100378.47;5058156;28;20045;-67
2021/04/03 06:07:31;;;;;;;30.10;10.47;;;;;;;16.54;64.27;100376.31;5065877;28;20048;-67
2021/04/03 06:09:59;;;;;;;25.37;10.53;;;;;;;16.40;64.16;100364.31;5055900;28;20041;-67
2021/04/03 06:12:47;;;;;;;34.17;10.30;;;;;;;16.34;64.10;100366.41;5064024;28;20055;-67
2021/04/03 06:15:28;;;;;;;29.33;11.00;;;;;;;16.26;64.17;100365.22;5063996;28;20044;-67
2021/04/03 06:17:56;;;;;;;31.57;11.03;;;;;;;16.22;64.11;100364.22;5066878;28;20091;-68
2021/04/03 06:20:36;;;;;;;31.00;10.67;;;;;;;16.14;64.34;100369.78;5057566;28;20052;-67
2021/04/03 06:23:05;;;;;;;29.67;10.80;;;;;;;16.08;64.45;100369.94;5063870;28;20182;-73
2021/04/03 06:25:51;;;;;;;26.07;11.20;;;;;;;16.03;64.77;100370.09;5064076;28;20040;-67
2021/04/03 06:28:17;;;;;;;26.70;10.13;;;;;;;15.99;65.02;100368.22;5056465;28;20052;-66
2021/04/03 06:30:43;;;;;;;29.23;11.77;;;;;;;15.95;65.02;100373.66;5063667;28;20045;-67
2021/04/03 06:33:18;;;;;;;28.80;10.60;;;;;;;15.90;64.95;100378.59;5060688;28;20048;-66
2021/04/03 06:36:03;;;;;;;35.20;12.97;;;;;;;15.87;65.02;100386.53;5061403;28;20052;-69
2021/04/03 06:38:29;;;;;;;35.07;11.23;;;;;;;15.83;65.38;100385.53;5058014;28;20049;-68
2021/04/03 06:41:21;;;;;;;30.13;10.90;;;;;;;15.85;65.32;100385.19;5063045;28;20048;-67
2021/04/03 06:44:05;;;;;;;27.90;9.77;;;;;;;15.86;65.09;100379.25;5060644;28;20457;-67
2021/04/03 06:46:36;;;;;;;33.33;10.80;;;;;;;15.93;65.39;100383.56;5064267;28;20105;-66
2021/04/03 06:49:04;;;;;;;30.77;11.23;;;;;;;15.77;65.38;100352.19;5062188;28;20044;-66
2021/04/03 06:51:32;;;;;;;32.53;10.63;;;;;;;15.98;65.63;100372.19;5062419;28;20048;-67
2021/04/03 06:54:00;;;;;;;26.37;9.57;;;;;;;16.00;65.52;100362.28;5063696;28;20481;-66
2021/04/03 06:56:28;;;;;;;30.17;11.67;;;;;;;16.04;65.49;100376.56;5060655;28;20586;-67
2021/04/03 06:59:00;;;;;;;23.33;13.10;;;;;;;16.01;65.51;100374.38;5060368;28;20049;-67
2021/04/03 07:01:35;;;;;;;24.60;10.50;;;;;;;15.99;65.52;100373.84;5060597;28;20055;-67
2021/04/03 07:04:12;;;;;;;36.27;11.80;;;;;;;16.03;65.43;100374.88;5055938;28;20125;-67
2021/04/03 07:06:39;;;;;;;32.97;12.70;;;;;;;16.10;65.53;100369.59;5059043;28;20123;-67
2021/04/03 07:09:07;;;;;;;27.23;12.63;;;;;;;15.78;65.63;100309.59;5058529;28;20040;-68
2021/04/03 07:11:33;;;;;;;31.67;13.30;;;;;;;16.30;65.54;100356.97;5058301;28;20045;-70
2021/04/03 07:14:00;;;;;;;33.10;12.20;;;;;;;16.39;65.50;100357.00;5059028;28;20047;-65
2021/04/03 07:16:28;;;;;;;31.37;11.97;;;;;;;16.47;65.45;100359.03;5062088;28;20049;-67
2021/04/03 07:18:58;;;;;;;28.13;10.87;;;;;;;16.54;65.41;100346.13;5064415;28;20481;-65
2021/04/03 07:21:24;;;;;;;23.10;9.73;;;;;;;16.92;65.26;100375.81;5060727;28;20409;-67
2021/04/03 07:23:52;;;;;;;24.10;9.57;;;;;;;17.13;64.86;100382.50;5055723;28;20045;-67
2021/04/03 07:26:18;;;;;;;23.20;10.03;;;;;;;17.38;64.38;100388.53;5060640;28;20059;-67
2021/04/03 07:28:44;;;;;;;26.70;10.03;;;;;;;17.53;64.20;100385.19;5055836;28;20060;-67
2021/04/03 07:31:46;;;;;;;18.58;9.02;;;;;;;17.76;63.73;100395.19;5064232;28;20040;-66
2021/04/03 07:34:13;;;;;;;24.90;10.20;;;;;;;17.97;63.28;100401.00;5062051;28;20052;-66
2021/04/03 07:36:41;;;;;;;24.00;10.38;;;;;;;18.08;62.88;100400.66;5061127;28;20555;-66
2021/04/03 07:39:34;;;;;;;25.40;10.02;;;;;;;18.27;62.84;100400.28;5054898;28;20132;-66
2021/04/03 07:42:01;;;;;;;22.60;9.18;;;;;;;18.50;62.29;100390.41;5057909;28;20096;-67
2021/04/03 07:44:36;;;;;;;22.88;7.95;;;;;;;18.86;61.50;100391.94;5055308;28;20053;-66
2021/04/03 07:47:21;;;;;;;25.40;8.73;;;;;;;19.03;61.29;100386.19;5058446;28;20047;-69
2021/04/03 07:49:48;;;;;;;19.70;9.90;;;;;;;19.34;60.52;100399.16;5058674;28;20053;-67
2021/04/03 07:52:14;;;;;;;15.27;8.35;;;;;;;19.63;60.16;100390.66;5056537;28;20041;-67
2021/04/03 07:54:41;;;;;;;20.75;8.73;;;;;;;19.97;59.52;100390.69;5062295;28;20485;-66
2021/04/03 07:57:10;;;;;;;23.75;8.73;;;;;;;20.23;58.91;100379.91;5058900;28;20052;-66
2021/04/03 07:59:42;;;;;;;22.33;9.55;;;;;;;20.50;58.13;100381.31;5058727;28;20057;-67
2021/04/03 08:02:20;;;;;;;20.90;8.73;;;;;;;20.78;57.41;100386.31;5054392;28;20052;-65
2021/04/03 08:04:47;;;;;;;22.15;8.88;;;;;;;21.01;56.86;100386.66;5047365;28;20520;-66
2021/04/03 08:07:15;;;;;;;17.17;7.90;;;;;;;21.18;56.21;100379.91;5060777;28;20489;-66
2021/04/03 08:09:41;;;;;;;24.77;8.50;;;;;;;21.44;55.87;100394.59;5059271;28;20040;-65
2021/04/03 08:12:08;;;;;;;18.13;8.13;;;;;;;21.67;55.23;100388.38;5054535;28;20052;-65
2021/04/03 08:14:36;;;;;;;20.08;7.43;;;;;;;21.58;54.30;100337.38;5054995;28;20052;-66
2021/04/03 08:17:05;;;;;;;24.25;8.80;;;;;;;21.94;53.94;100386.72;5054771;28;20045;-66
2021/04/03 08:19:38;;;;;;;19.45;9.88;;;;;;;22.23;53.68;100399.81;5056986;28;20041;-67
2021/04/03 08:22:08;;;;;;;20.33;9.43;;;;;;;22.30;53.18;100396.31;5062135;28;20037;-65
2021/04/03 08:24:36;;;;;;;19.52;8.45;;;;;;;22.42;52.98;100393.41;5057139;28;20036;-68
2021/04/03 08:27:03;;;;;;;16.73;7.88;;;;;;;22.46;52.64;100398.00;5059166;28;20048;-66
2021/04/03 08:29:33;;;;;;;17.30;7.80;;;;;;;22.65;52.34;100396.47;5057267;28;20496;-66
2021/04/03 08:32:01;;;;;;;17.13;8.80;;;;;;;22.84;52.10;100402.25;5059035;28;20119;-66
2021/04/03 08:34:28;;;;;;;21.58;8.38;;;;;;;23.00;51.37;100401.44;5056514;28;20052;-66
2021/04/03 08:36:55;;;;;;;17.90;8.55;;;;;;;23.17;50.92;100404.72;5056330;28;20075;-68
2021/04/03 08:39:23;;;;;;;23.10;8.23;;;;;;;23.19;50.98;100401.53;5062569;28;20041;-67
2021/04/03 08:41:53;;;;;;;18.40;8.87;;;;;;;23.39;50.09;100389.00;5059871;28;20040;-67
2021/04/03 08:44:23;;;;;;;17.98;8.85;;;;;;;23.44;50.10;100390.72;5056100;28;20080;-68
2021/04/03 08:47:04;;;;;;;21.40;9.93;;;;;;;23.76;49.59;100393.47;5060962;28;20072;-68
2021/04/03 08:49:36;;;;;;;18.30;8.95;;;;;;;24.07;49.31;100395.38;5052088;28;20576;-67
2021/04/03 08:52:10;;;;;;;21.02;8.15;;;;;;;24.08;48.93;100391.31;5052146;28;20048;-68
2021/04/03 08:54:38;;;;;;;23.25;9.68;;;;;;;24.18;48.54;100367.88;5052777;28;20045;-68
2021/04/03 08:57:26;;;;;;;23.33;8.40;;;;;;;24.65;48.27;100397.31;5053426;28;20052;-68
2021/04/03 09:00:00;;;;;;;15.90;8.57;;;;;;;25.04;47.60;100398.84;5052608;28;20088;-68
2021/04/03 09:02:27;;;;;;;19.75;9.02;;;;;;;25.33;46.28;100390.75;5051772;28;20060;-69
2021/04/03 09:04:54;;;;;;;19.17;9.02;;;;;;;25.61;46.01;100400.97;5054648;28;20047;-68
2021/04/03 09:07:33;;;;;;;16.75;9.68;;;;;;;25.83;45.46;100399.25;5053123;28;21028;-68
2021/04/03 09:10:17;;;;;;;17.80;8.45;;;;;;;26.06;44.96;100399.97;5052193;28;20513;-67
2021/04/03 09:12:46;;;;;;;16.67;9.30;;;;;;;26.13;44.68;100404.97;5052750;28;20437;-68
2021/04/03 09:15:15;;;;;;;18.35;8.43;;;;;;;26.11;44.09;100393.88;5040965;28;20432;-68
2021/04/03 09:17:50;;;;;;;17.75;8.55;;;;;;;26.09;44.28;100393.47;5060483;28;20493;-68
2021/04/03 09:20:22;;;;;;;17.13;7.63;;;;;;;26.01;43.88;100388.84;5052056;28;20052;-68
2021/04/03 09:22:50;;;;;;;17.50;7.50;;;;;;;25.93;43.92;100387.94;5052035;28;20045;-69
2021/04/03 09:25:19;;;;;;;15.32;7.78;;;;;;;25.91;44.23;100384.63;5052869;28;20044;-68
2021/04/03 09:28:04;;;;;;;16.98;8.32;;;;;;;26.09;43.73;100392.66;5052564;28;20052;-67
2021/04/03 09:30:37;;;;;;;19.17;8.68;;;;;;;26.29;43.73;100387.53;5054186;28;20413;-67
2021/04/03 09:33:21;;;;;;;18.50;9.02;;;;;;;26.57;43.37;100379.31;5052508;28;20042;-66
2021/04/03 09:35:48;;;;;;;15.02;7.63;;;;;;;26.84;42.65;100393.47;5052683;28;20056;-68
2021/04/03 09:38:25;;;;;;;23.42;9.27;;;;;;;27.04;41.91;100399.78;5051840;28;20052;-67
2021/04/03 09:40:52;;;;;;;16.05;7.80;;;;;;;26.70;42.17;100340.56;5056542;28;20064;-67
2021/04/03 09:43:18;;;;;;;15.13;8.57;;;;;;;27.10;41.57;100393.28;5057711;28;20485;-68
2021/04/03 09:45:44;;;;;;;15.50;7.47;;;;;;;27.20;41.69;100391.75;5052974;28;20060;-66
2021/04/03 09:48:11;;;;;;;20.70;7.93;;;;;;;27.52;40.77;100396.88;5057943;28;20041;-67
2021/04/03 09:50:40;;;;;;;16.20;8.18;;;;;;;27.81;40.41;100392.16;5051395;28;20088;-66
2021/04/03 09:53:09;;;;;;;19.38;8.27;;;;;;;28.03;40.19;100382.41;5051892;28;20410;-67
2021/04/03 09:55:36;;;;;;;15.95;6.97;;;;;;;28.13;40.01;100382.88;5051928;28;20478;-68
2021/04/03 09:58:03;;;;;;;16.35;8.48;;;;;;;28.08;39.81;100387.78;5051915;28;20053;-68
2021/04/03 10:00:30;;;;;;;16.42;7.22;;;;;;;28.14;39.51;100379.59;5051827;28;20529;-67
2021/04/03 10:02:59;;;;;;;13.00;6.93;;;;;;;28.24;39.53;100386.59;5055132;28;20048;-68
2021/04/03 10:05:25;;;;;;;19.23;7.63;;;;;;;28.48;39.44;100391.63;5058336;28;20048;-67
2021/04/03 10:07:51;;;;;;;20.48;7.30;;;;;;;28.85;38.80;100387.56;5055737;28;20048;-67
2021/04/03 10:10:18;;;;;;;16.13;8.48;;;;;;;29.10;38.26;100396.22;5054968;28;20041;-68
2021/04/03 10:12:44;;;;;;;15.68;9.40;;;;;;;29.31;37.88;100386.75;5057251;28;20051;-66
2021/04/03 10:15:11;;;;;;;12.77;7.72;;;;;;;29.48;37.73;100379.34;5058293;28;20041;-67
2021/04/03 10:17:37;;;;;;;15.85;8.23;;;;;;;29.63;37.31;100389.59;5058155;28;20053;-67
2021/04/03 10:20:05;;;;;;;16.67;6.68;;;;;;;29.78;36.77;100370.25;5055416;28;20397;-68
2021/04/03 10:22:31;;;;;;;14.55;6.85;;;;;;;30.17;36.85;100383.66;5056034;28;20051;-68
2021/04/03 10:25:00;;;;;;;13.27;6.80;;;;;;;30.38;36.25;100366.28;5055054;28;20083;-68
2021/04/03 10:27:38;;;;;;;13.18;7.47;;;;;;;30.67;35.92;100384.22;5054086;28;20087;-68
2021/04/03 10:30:07;;;;;;;14.65;7.22;;;;;;;30.85;35.57;100363.91;5055682;28;20045;-69
2021/04/03 10:32:34;;;;;;;13.07;7.18;;;;;;;31.03;35.16;100380.25;5056278;28;20530;-67
2021/04/03 10:35:00;;;;;;;18.88;8.02;;;;;;;31.20;34.52;100373.50;5058821;28;20040;-68
2021/04/03 10:37:26;;;;;;;16.42;7.95;;;;;;;31.38;34.99;100384.88;5060872;28;20485;-67
2021/04/03 10:39:53;;;;;;;14.40;7.55;;;;;;;31.57;34.27;100374.81;5058373;28;20041;-67
2021/04/03 10:42:19;;;;;;;19.25;7.80;;;;;;;31.92;34.54;100364.13;5059664;28;20060;-67
2021/04/03 10:44:45;;;;;;;14.32;7.75;;;;;;;32.26;33.68;100364.88;5058659;28;20427;-66
2021/04/03 10:47:12;;;;;;;16.33;7.93;;;;;;;32.57;33.38;100353.31;5060877;28;20559;-65
2021/04/03 10:49:38;;;;;;;13.85;8.07;;;;;;;32.79;32.96;100357.50;5064059;28;20045;-65
2021/04/03 10:52:05;;;;;;;15.93;8.15;;;;;;;32.98;32.27;100352.25;5055286;28;20041;-64
2021/04/03 10:54:31;;;;;;;20.80;8.68;;;;;;;33.10;32.31;100353.72;5061351;28;20091;-65
2021/04/03 10:56:58;;;;;;;13.90;7.90;;;;;;;33.21;31.86;100349.38;5060527;28;20048;-66
2021/04/03 10:59:24;;;;;;;12.68;7.55;;;;;;;33.31;32.10;100340.94;5055791;28;20053;-65
2021/04/03 11:01:53;;;;;;;15.27;7.65;;;;;;;33.24;31.94;100313.75;5061474;28;20040;-65
2021/04/03 11:04:20;;;;;;;18.23;8.07;;;;;;;33.49;31.48;100347.22;5061915;28;20048;-65
2021/04/03 11:06:46;;;;;;;16.98;7.78;;;;;;;33.81;31.00;100339.97;5060270;28;20128;-65
2021/04/03 11:09:13;;;;;;;14.73;8.07;;;;;;;34.20;30.30;100331.28;5059343;28;20049;-66
2021/04/03 11:11:39;;;;;;;15.73;6.85;;;;;;;34.26;30.24;100325.78;5056215;28;20041;-65
2021/04/03 11:14:06;;;;;;;20.75;7.32;;;;;;;34.23;30.23;100328.75;5059154;28;20071;-66
2021/04/03 11:16:32;;;;;;;11.88;7.40;;;;;;;34.22;30.12;100325.00;5060532;28;20063;-65
2021/04/03 11:18:59;;;;;;;12.38;6.38;;;;;;;34.11;29.68;100324.44;5056654;28;20489;-66
2021/04/03 11:21:25;;;;;;;16.17;7.18;;;;;;;34.02;30.00;100316.38;5062699;28;20132;-65
2021/04/03 11:23:52;;;;;;;17.27;8.20;;;;;;;34.13;29.74;100316.94;5055875;28;20131;-65